createdAt,value
2018-12-04T00:00:40.888Z,99296.41
2018-12-04T00:01:18.683Z,99295.13
2018-12-04T00:01:55.743Z,99295.13
2018-12-04T00:02:33.132Z,99296.24
2018-12-04T00:03:10.577Z,99297.78
2018-12-04T00:03:49.613Z,99293.05
2018-12-04T00:04:26.729Z,99293.05
2018-12-04T00:05:04.188Z,99296.94
2018-12-04T00:05:41.566Z,99296.94
2018-12-04T00:06:18.940Z,99293.44
2018-12-04T00:06:56.016Z,99284.84
2018-12-04T00:07:33.433Z,99284.98
2018-12-04T00:08:10.786Z,99278.53
2018-12-04T00:08:48.246Z,99284.16
2018-12-04T00:09:25.296Z,99287.71
2018-12-04T00:10:02.729Z,99296.86
2018-12-04T00:10:40.074Z,99296.86
2018-12-04T00:11:17.178Z,99285.44
2018-12-04T00:11:54.638Z,99285.44
2018-12-04T00:12:31.718Z,99283.76
2018-12-04T00:13:09.180Z,99290.08
2018-12-04T00:13:46.237Z,99290.08
2018-12-04T00:14:23.343Z,99287.13
2018-12-04T00:15:00.386Z,99287.13
2018-12-04T00:15:37.460Z,99284.92
2018-12-04T00:16:14.505Z,99284.92
2018-12-04T00:16:52.009Z,99291.00
2018-12-04T00:17:29.427Z,99291.00
2018-12-04T00:18:07.132Z,99284.86
2018-12-04T00:18:44.486Z,99291.63
2018-12-04T00:19:22.377Z,99291.63
2018-12-04T00:19:59.488Z,99291.14
2018-12-04T00:20:36.641Z,99301.20
2018-12-04T00:21:14.015Z,99299.28
2018-12-04T00:21:51.130Z,99299.28
2018-12-04T00:22:28.595Z,99301.20
2018-12-04T00:23:05.817Z,99285.90
2018-12-04T00:23:43.512Z,99296.62
2018-12-04T00:24:20.683Z,99291.45
2018-12-04T00:24:58.102Z,99301.34
2018-12-04T00:25:35.170Z,99303.55
2018-12-04T00:26:12.233Z,99306.97
2018-12-04T00:26:49.336Z,99306.97
2018-12-04T00:27:26.771Z,99298.67
2018-12-04T00:28:03.860Z,99302.77
2018-12-04T00:28:40.932Z,99302.77
2018-12-04T00:29:18.429Z,99302.48
2018-12-04T00:29:55.885Z,99302.48
2018-12-04T00:30:33.483Z,99298.29
2018-12-04T00:31:10.849Z,99298.29
2018-12-04T00:31:48.254Z,99311.82
2018-12-04T00:32:25.606Z,99308.11
2018-12-04T00:33:02.981Z,99292.15
2018-12-04T00:33:40.128Z,99301.80
2018-12-04T00:34:57.816Z,99304.31
2018-12-04T00:35:32.492Z,99308.64
2018-12-04T00:36:07.153Z,99307.04
2018-12-04T00:36:41.721Z,99300.58
2018-12-04T00:37:16.342Z,99306.65
2018-12-04T00:37:50.907Z,99315.70
2018-12-04T00:38:25.569Z,99305.45
2018-12-04T00:39:00.333Z,99311.22
2018-12-04T00:39:35.197Z,99306.36
2018-12-04T00:40:10.378Z,99307.78
2018-12-04T00:40:44.954Z,99312.83
2018-12-04T00:41:19.551Z,99316.39
2018-12-04T00:41:54.170Z,99303.84
2018-12-04T00:42:28.804Z,99313.50
2018-12-04T00:43:03.884Z,99303.78
2018-12-04T00:43:38.480Z,99313.43
2018-12-04T00:44:13.153Z,99311.75
2018-12-04T00:44:47.767Z,99311.55
2018-12-04T00:45:22.394Z,99314.41
2018-12-04T00:45:56.984Z,99318.08
2018-12-04T00:46:31.690Z,99315.48
2018-12-04T00:47:06.342Z,99307.34
2018-12-04T00:47:40.903Z,99314.72
2018-12-04T00:48:15.922Z,99316.86
2018-12-04T00:48:50.628Z,99318.84
2018-12-04T00:49:25.181Z,99321.81
2018-12-04T00:49:59.921Z,99322.48
2018-12-04T00:50:34.484Z,99321.75
2018-12-04T00:51:09.044Z,99321.05
2018-12-04T00:51:43.626Z,99321.50
2018-12-04T00:52:18.249Z,99316.47
2018-12-04T00:52:52.870Z,99338.69
2018-12-04T00:53:27.434Z,99324.61
2018-12-04T00:54:02.138Z,99326.53
2018-12-04T00:54:36.818Z,99328.42
2018-12-04T00:55:11.433Z,99331.84
2018-12-04T00:55:46.086Z,99329.53
2018-12-04T00:56:20.823Z,99324.30
2018-12-04T00:56:55.581Z,99334.36
2018-12-04T00:57:30.197Z,99330.03
2018-12-04T00:58:04.824Z,99337.22
2018-12-04T00:58:39.396Z,99333.13
2018-12-04T00:59:14.078Z,99338.83
2018-12-04T00:59:49.315Z,99331.91
2018-12-04T01:00:24.106Z,99341.73
2018-12-04T01:00:58.699Z,99344.07
2018-12-04T01:01:33.445Z,99342.50
2018-12-04T01:02:07.998Z,99338.69
2018-12-04T01:02:42.596Z,99339.08
2018-12-04T01:03:17.330Z,99335.34
2018-12-04T01:03:51.947Z,99344.45
2018-12-04T01:04:26.560Z,99346.06
2018-12-04T01:05:01.116Z,99343.55
2018-12-04T01:05:35.718Z,99345.47
2018-12-04T01:06:10.340Z,99350.25
2018-12-04T01:06:44.964Z,99350.64
2018-12-04T01:07:19.738Z,99353.36
2018-12-04T01:07:54.483Z,99361.88
2018-12-04T01:08:29.776Z,99354.86
2018-12-04T01:09:10.186Z,99358.29
2018-12-04T01:09:44.911Z,99355.42
2018-12-04T01:10:19.498Z,99361.33
2018-12-04T01:10:54.077Z,99364.54
2018-12-04T01:11:28.721Z,99358.67
2018-12-04T01:12:03.320Z,99364.75
2018-12-04T01:12:37.971Z,99366.61
2018-12-04T01:13:12.586Z,99371.00
2018-12-04T01:13:47.181Z,99375.16
2018-12-04T01:14:21.788Z,99371.45
2018-12-04T01:14:57.631Z,99373.97
2018-12-04T01:15:32.356Z,99383.76
2018-12-04T01:16:07.428Z,99376.63
2018-12-04T01:16:42.014Z,99375.72
2018-12-04T01:17:16.594Z,99376.46
2018-12-04T01:17:51.189Z,99376.18
2018-12-04T01:18:25.821Z,99376.70
2018-12-04T01:19:00.841Z,99384.32
2018-12-04T01:19:35.438Z,99379.15
2018-12-04T01:20:10.414Z,99384.60
2018-12-04T01:20:44.997Z,99384.60
2018-12-04T01:21:19.606Z,99382.72
2018-12-04T01:21:54.265Z,99385.30
2018-12-04T01:22:28.863Z,99390.69
2018-12-04T01:23:03.474Z,99400.44
2018-12-04T01:23:38.067Z,99394.56
2018-12-04T01:24:12.631Z,99395.19
2018-12-04T01:24:47.231Z,99396.77
2018-12-04T01:25:21.958Z,99399.91
2018-12-04T01:25:56.560Z,99403.79
2018-12-04T01:26:31.112Z,99401.20
2018-12-04T01:27:05.808Z,99394.28
2018-12-04T01:27:40.490Z,99405.08
2018-12-04T01:28:15.102Z,99411.61
2018-12-04T01:28:49.697Z,99410.64
2018-12-04T01:29:24.353Z,99416.02
2018-12-04T01:29:59.057Z,99410.17
2018-12-04T01:30:33.638Z,99410.25
2018-12-04T01:31:08.248Z,99413.95
2018-12-04T01:31:42.937Z,99418.00
2018-12-04T01:32:17.615Z,99419.75
2018-12-04T01:32:52.197Z,99423.63
2018-12-04T01:33:26.807Z,99423.00
2018-12-04T01:34:01.351Z,99426.05
2018-12-04T01:34:35.949Z,99416.26
2018-12-04T01:35:11.057Z,99422.86
2018-12-04T01:35:45.636Z,99418.20
2018-12-04T01:36:20.689Z,99433.72
2018-12-04T01:36:55.261Z,99428.48
2018-12-04T01:37:29.950Z,99431.67
2018-12-04T01:38:05.067Z,99427.89
2018-12-04T01:38:39.677Z,99425.38
2018-12-04T01:39:14.285Z,99433.66
2018-12-04T01:39:48.907Z,99421.34
2018-12-04T01:40:23.514Z,99425.90
2018-12-04T01:40:58.170Z,99425.13
2018-12-04T01:41:32.767Z,99431.14
2018-12-04T01:42:07.347Z,99430.69
2018-12-04T01:42:41.925Z,99426.22
2018-12-04T01:43:16.514Z,99426.14
2018-12-04T01:43:51.149Z,99428.95
2018-12-04T01:44:25.862Z,99419.05
2018-12-04T01:45:00.678Z,99428.41
2018-12-04T01:45:35.283Z,99432.89
2018-12-04T01:46:09.868Z,99433.59
2018-12-04T01:46:44.927Z,99425.13
2018-12-04T01:47:19.560Z,99432.61
2018-12-04T01:47:54.119Z,99436.03
2018-12-04T01:48:28.696Z,99431.67
2018-12-04T01:49:03.262Z,99436.63
2018-12-04T01:49:37.907Z,99437.23
2018-12-04T01:50:12.598Z,99438.52
2018-12-04T01:50:47.208Z,99433.91
2018-12-04T01:51:21.941Z,99437.08
2018-12-04T01:51:56.535Z,99451.55
2018-12-04T01:52:31.165Z,99439.53
2018-12-04T01:53:05.760Z,99433.98
2018-12-04T01:53:40.505Z,99438.91
2018-12-04T01:54:15.101Z,99439.61
2018-12-04T01:54:49.798Z,99440.12
2018-12-04T01:55:24.440Z,99447.89
2018-12-04T01:55:59.031Z,99444.47
2018-12-04T01:56:33.614Z,99446.60
2018-12-04T01:57:08.704Z,99454.05
2018-12-04T01:57:43.317Z,99439.99
2018-12-04T01:58:18.167Z,99438.70
2018-12-04T01:58:52.979Z,99449.05
2018-12-04T01:59:27.668Z,99443.17
2018-12-04T02:00:02.736Z,99449.19
2018-12-04T02:00:37.310Z,99445.17
2018-12-04T02:01:11.925Z,99441.11
2018-12-04T02:01:46.491Z,99444.33
2018-12-04T02:02:21.142Z,99447.83
2018-12-04T02:02:55.729Z,99445.06
2018-12-04T02:03:30.573Z,99443.63
2018-12-04T02:04:05.830Z,99454.36
2018-12-04T02:04:41.144Z,99451.45
2018-12-04T02:05:16.344Z,99451.39
2018-12-04T02:05:51.081Z,99447.75
2018-12-04T02:06:25.771Z,99452.44
2018-12-04T02:07:00.356Z,99445.91
2018-12-04T02:07:34.936Z,99452.36
2018-12-04T02:08:09.546Z,99456.25
2018-12-04T02:08:44.294Z,99456.62
2018-12-04T02:09:18.943Z,99452.92
2018-12-04T02:09:54.143Z,99452.92
2018-12-04T02:10:28.872Z,99449.25
2018-12-04T02:11:03.660Z,99455.33
2018-12-04T02:11:38.298Z,99454.22
2018-12-04T02:12:12.863Z,99465.75
2018-12-04T02:12:47.436Z,99462.12
2018-12-04T02:13:22.333Z,99457.99
2018-12-04T02:13:56.983Z,99456.94
2018-12-04T02:14:31.662Z,99457.25
2018-12-04T02:15:06.695Z,99462.81
2018-12-04T02:15:41.270Z,99467.88
2018-12-04T02:16:15.981Z,99467.05
2018-12-04T02:16:50.629Z,99467.53
2018-12-04T02:17:25.243Z,99470.02
2018-12-04T02:17:59.836Z,99465.68
2018-12-04T02:18:34.437Z,99479.00
2018-12-04T02:19:09.012Z,99474.45
2018-12-04T02:19:43.677Z,99472.59
2018-12-04T02:20:19.255Z,99449.09
2018-12-04T02:20:53.888Z,99480.46
2018-12-04T02:21:28.635Z,99479.00
2018-12-04T02:22:03.249Z,99479.59
2018-12-04T02:22:38.050Z,99472.77
2018-12-04T02:23:12.609Z,99476.66
2018-12-04T02:23:47.221Z,99475.37
2018-12-04T02:24:22.005Z,99480.44
2018-12-04T02:24:56.644Z,99473.61
2018-12-04T02:25:31.742Z,99474.66
2018-12-04T02:26:06.326Z,99471.41
2018-12-04T02:26:41.004Z,99470.92
2018-12-04T02:27:15.568Z,99463.31
2018-12-04T02:27:50.440Z,99478.70
2018-12-04T02:28:29.356Z,99475.95
2018-12-04T02:29:04.638Z,99472.23
2018-12-04T02:29:39.289Z,99472.52
2018-12-04T02:30:14.441Z,99479.44
2018-12-04T02:30:49.207Z,99482.58
2018-12-04T02:31:24.514Z,99482.73
2018-12-04T02:31:59.186Z,99491.93
2018-12-04T02:32:33.793Z,99484.47
2018-12-04T02:33:08.400Z,99486.36
2018-12-04T02:33:42.988Z,99479.99
2018-12-04T02:34:17.603Z,99479.37
2018-12-04T02:34:52.444Z,99481.64
2018-12-04T02:35:27.363Z,99488.02
2018-12-04T02:36:02.694Z,99490.08
2018-12-04T02:36:37.743Z,99491.83
2018-12-04T02:37:12.305Z,99488.41
2018-12-04T02:37:46.967Z,99500.04
2018-12-04T02:38:21.716Z,99492.08
2018-12-04T02:38:56.391Z,99493.96
2018-12-04T02:39:31.024Z,99497.06
2018-12-04T02:40:06.938Z,99495.25
2018-12-04T02:40:41.809Z,99489.02
2018-12-04T02:41:16.497Z,99504.77
2018-12-04T02:41:51.183Z,99503.27
2018-12-04T02:42:25.859Z,99499.22
2018-12-04T02:43:00.714Z,99496.88
2018-12-04T02:43:35.364Z,99505.68
2018-12-04T02:44:10.078Z,99511.30
2018-12-04T02:44:44.663Z,99502.58
2018-12-04T02:45:19.284Z,99500.30
2018-12-04T02:45:54.063Z,99507.14
2018-12-04T02:46:28.724Z,99503.84
2018-12-04T02:47:03.348Z,99500.20
2018-12-04T02:47:37.981Z,99498.30
2018-12-04T02:48:12.632Z,99506.50
2018-12-04T02:48:47.258Z,99502.40
2018-12-04T02:49:22.161Z,99496.55
2018-12-04T02:49:56.818Z,99497.16
2018-12-04T02:50:31.464Z,99503.70
2018-12-04T02:51:06.604Z,99504.60
2018-12-04T02:51:41.194Z,99504.98
2018-12-04T02:52:15.916Z,99506.93
2018-12-04T02:52:50.654Z,99501.33
2018-12-04T02:53:25.350Z,99504.83
2018-12-04T02:53:59.951Z,99503.08
2018-12-04T02:54:34.594Z,99512.29
2018-12-04T02:55:09.234Z,99506.86
2018-12-04T02:55:43.850Z,99510.67
2018-12-04T02:56:18.585Z,99515.39
2018-12-04T02:56:53.251Z,99513.72
2018-12-04T02:57:28.388Z,99510.61
2018-12-04T02:58:03.079Z,99511.58
2018-12-04T02:58:37.816Z,99514.78
2018-12-04T02:59:12.428Z,99511.91
2018-12-04T02:59:47.134Z,99516.36
2018-12-04T03:00:22.158Z,99517.36
2018-12-04T03:00:56.798Z,99519.45
2018-12-04T03:01:31.490Z,99512.06
2018-12-04T03:02:06.552Z,99520.95
2018-12-04T03:02:41.190Z,99524.45
2018-12-04T03:03:16.164Z,99515.91
2018-12-04T03:03:51.013Z,99520.88
2018-12-04T03:04:25.664Z,99526.05
2018-12-04T03:05:00.408Z,99529.92
2018-12-04T03:05:35.608Z,99535.03
2018-12-04T03:06:10.225Z,99527.73
2018-12-04T03:06:44.869Z,99525.83
2018-12-04T03:07:19.509Z,99526.80
2018-12-04T03:07:54.172Z,99529.58
2018-12-04T03:08:28.810Z,99529.58
2018-12-04T03:09:04.278Z,99533.58
2018-12-04T03:09:38.883Z,99535.56
2018-12-04T03:10:14.025Z,99539.05
2018-12-04T03:10:48.660Z,99540.54
2018-12-04T03:11:23.350Z,99541.61
2018-12-04T03:11:57.969Z,99550.69
2018-12-04T03:12:33.029Z,99550.75
2018-12-04T03:13:07.638Z,99552.95
2018-12-04T03:13:42.322Z,99554.85
2018-12-04T03:14:16.949Z,99548.23
2018-12-04T03:14:51.646Z,99548.03
2018-12-04T03:15:26.513Z,99553.36
2018-12-04T03:16:01.156Z,99564.73
2018-12-04T03:16:35.767Z,99559.50
2018-12-04T03:17:10.462Z,99557.92
2018-12-04T03:17:45.092Z,99566.20
2018-12-04T03:18:19.775Z,99567.78
2018-12-04T03:18:54.799Z,99561.02
2018-12-04T03:19:29.412Z,99566.22
2018-12-04T03:20:05.650Z,99560.08
2018-12-04T03:20:40.309Z,99567.09
2018-12-04T03:21:15.136Z,99566.84
2018-12-04T03:21:49.848Z,99573.82
2018-12-04T03:22:24.543Z,99576.95
2018-12-04T03:22:59.190Z,99572.62
2018-12-04T03:23:33.801Z,99569.65
2018-12-04T03:24:08.651Z,99575.89
2018-12-04T03:24:43.248Z,99573.20
2018-12-04T03:25:17.946Z,99577.09
2018-12-04T03:25:52.643Z,99575.53
2018-12-04T03:26:27.401Z,99577.83
2018-12-04T03:27:02.046Z,99577.31
2018-12-04T03:27:36.750Z,99581.74
2018-12-04T03:28:11.403Z,99577.22
2018-12-04T03:28:46.364Z,99578.61
2018-12-04T03:29:21.124Z,99582.00
2018-12-04T03:29:55.817Z,99587.78
2018-12-04T03:30:30.955Z,99581.19
2018-12-04T03:31:05.585Z,99585.52
2018-12-04T03:31:40.226Z,99586.81
2018-12-04T03:32:15.334Z,99589.47
2018-12-04T03:32:50.008Z,99577.09
2018-12-04T03:33:38.078Z,99586.91
2018-12-04T03:34:12.718Z,99581.77
2018-12-04T03:34:47.351Z,99586.81
2018-12-04T03:35:22.208Z,99596.19
2018-12-04T03:35:57.028Z,99593.28
2018-12-04T03:36:31.651Z,99593.02
2018-12-04T03:37:06.326Z,99592.77
2018-12-04T03:37:40.956Z,99591.76
2018-12-04T03:38:15.562Z,99598.35
2018-12-04T03:38:50.312Z,99594.02
2018-12-04T03:39:25.014Z,99597.00
2018-12-04T03:39:59.679Z,99599.91
2018-12-04T03:40:34.861Z,99594.80
2018-12-04T03:41:09.669Z,99595.77
2018-12-04T03:41:45.336Z,99600.48
2018-12-04T03:42:20.300Z,99599.29
2018-12-04T03:42:55.162Z,99598.00
2018-12-04T03:43:29.820Z,99602.69
2018-12-04T03:44:04.742Z,99608.95
2018-12-04T03:44:39.856Z,99605.46
2018-12-04T03:45:14.504Z,99603.04
2018-12-04T03:45:49.791Z,99605.40
2018-12-04T03:46:24.481Z,99623.41
2018-12-04T03:46:59.165Z,99613.77
2018-12-04T03:47:33.788Z,99594.12
2018-12-04T03:48:08.465Z,99620.40
2018-12-04T03:48:43.119Z,99615.91
2018-12-04T03:49:17.767Z,99613.61
2018-12-04T03:49:52.594Z,99618.84
2018-12-04T03:50:27.359Z,99617.78
2018-12-04T03:51:02.111Z,99622.95
2018-12-04T03:51:36.737Z,99618.91
2018-12-04T03:52:11.354Z,99613.16
2018-12-04T03:52:46.028Z,99609.24
2018-12-04T03:53:20.786Z,99623.11
2018-12-04T03:53:55.744Z,99619.81
2018-12-04T03:54:30.901Z,99620.37
2018-12-04T03:55:06.715Z,99621.40
2018-12-04T03:55:41.332Z,99625.13
2018-12-04T03:56:15.986Z,99629.52
2018-12-04T03:56:51.014Z,99628.77
2018-12-04T03:57:25.770Z,99622.70
2018-12-04T03:58:00.426Z,99615.13
2018-12-04T03:58:35.055Z,99611.86
2018-12-04T03:59:09.778Z,99626.09
2018-12-04T03:59:44.464Z,99625.50
2018-12-04T04:00:19.614Z,99631.16
2018-12-04T04:00:54.379Z,99635.95
2018-12-04T04:01:29.333Z,99633.06
2018-12-04T04:02:04.183Z,99624.14
2018-12-04T04:02:38.872Z,99636.69
2018-12-04T04:03:13.604Z,99637.07
2018-12-04T04:03:48.232Z,99638.59
2018-12-04T04:04:23.202Z,99635.48
2018-12-04T04:04:58.189Z,99643.41
2018-12-04T04:05:33.199Z,99640.83
2018-12-04T04:06:07.893Z,99635.33
2018-12-04T04:06:42.614Z,99643.58
2018-12-04T04:07:17.270Z,99639.76
2018-12-04T04:07:52.004Z,99641.05
2018-12-04T04:08:26.753Z,99644.83
2018-12-04T04:09:01.403Z,99644.98
2018-12-04T04:09:36.024Z,99652.07
2018-12-04T04:10:10.665Z,99651.45
2018-12-04T04:10:45.560Z,99650.06
2018-12-04T04:11:20.185Z,99645.61
2018-12-04T04:11:55.001Z,99647.35
2018-12-04T04:12:29.681Z,99656.89
2018-12-04T04:13:04.745Z,99654.20
2018-12-04T04:13:39.553Z,99654.31
2018-12-04T04:14:14.299Z,99656.51
2018-12-04T04:14:49.206Z,99657.47
2018-12-04T04:15:23.853Z,99658.52
2018-12-04T04:15:58.457Z,99656.79
2018-12-04T04:16:33.108Z,99664.38
2018-12-04T04:17:07.710Z,99652.98
2018-12-04T04:17:42.349Z,99646.98
2018-12-04T04:18:16.961Z,99661.30
2018-12-04T04:18:51.758Z,99654.78
2018-12-04T04:19:26.524Z,99658.20
2018-12-04T04:20:01.132Z,99659.27
2018-12-04T04:20:36.217Z,99665.33
2018-12-04T04:21:11.292Z,99667.32
2018-12-04T04:21:45.938Z,99667.32
2018-12-04T04:22:20.600Z,99658.77
2018-12-04T04:22:55.278Z,99674.06
2018-12-04T04:23:29.891Z,99672.15
2018-12-04T04:24:05.096Z,99665.97
2018-12-04T04:24:39.721Z,99675.46
2018-12-04T04:25:14.340Z,99668.00
2018-12-04T04:25:49.294Z,99672.09
2018-12-04T04:26:24.023Z,99677.98
2018-12-04T04:26:58.711Z,99684.24
2018-12-04T04:27:33.357Z,99676.09
2018-12-04T04:28:07.992Z,99681.81
2018-12-04T04:28:42.625Z,99683.95
2018-12-04T04:29:17.304Z,99690.41
2018-12-04T04:29:52.140Z,99688.16
2018-12-04T04:30:26.856Z,99692.54
2018-12-04T04:31:01.478Z,99693.16
2018-12-04T04:31:36.720Z,99688.89
2018-12-04T04:32:11.354Z,99693.86
2018-12-04T04:32:46.026Z,99695.92
2018-12-04T04:33:20.748Z,99695.30
2018-12-04T04:33:55.398Z,99696.48
2018-12-04T04:34:30.312Z,99699.81
2018-12-04T04:35:05.872Z,99701.64
2018-12-04T04:35:40.482Z,99708.17
2018-12-04T04:36:15.090Z,99713.73
2018-12-04T04:36:49.750Z,99708.91
2018-12-04T04:37:24.490Z,99701.09
2018-12-04T04:37:59.131Z,99704.41
2018-12-04T04:38:33.782Z,99710.93
2018-12-04T04:39:08.742Z,99720.19
2018-12-04T04:39:43.622Z,99715.08
2018-12-04T04:40:18.209Z,99720.76
2018-12-04T04:40:52.858Z,99718.63
2018-12-04T04:41:27.452Z,99711.20
2018-12-04T04:42:02.033Z,99714.23
2018-12-04T04:42:36.616Z,99715.20
2018-12-04T04:43:11.194Z,99726.53
2018-12-04T04:43:45.896Z,99725.53
2018-12-04T04:44:20.527Z,99728.23
2018-12-04T04:44:55.188Z,99730.13
2018-12-04T04:45:29.761Z,99724.00
2018-12-04T04:46:04.753Z,99728.45
2018-12-04T04:46:39.375Z,99732.14
2018-12-04T04:47:13.956Z,99725.35
2018-12-04T04:47:48.567Z,99723.34
2018-12-04T04:48:23.295Z,99732.38
2018-12-04T04:48:58.218Z,99728.17
2018-12-04T04:49:32.835Z,99726.77
2018-12-04T04:50:08.339Z,99730.13
2018-12-04T04:50:42.910Z,99733.05
2018-12-04T04:51:17.493Z,99731.54
2018-12-04T04:51:52.231Z,99731.45
2018-12-04T04:52:26.859Z,99738.84
2018-12-04T04:53:01.464Z,99738.69
2018-12-04T04:53:36.006Z,99745.81
2018-12-04T04:54:10.655Z,99745.41
2018-12-04T04:54:45.268Z,99746.43
2018-12-04T04:55:20.004Z,99747.61
2018-12-04T04:55:54.627Z,99748.45
2018-12-04T04:56:29.232Z,99751.15
2018-12-04T04:57:04.173Z,99750.00
2018-12-04T04:57:38.838Z,99748.95
2018-12-04T04:58:13.437Z,99747.88
2018-12-04T04:58:48.137Z,99754.45
2018-12-04T04:59:22.830Z,99753.67
2018-12-04T04:59:57.498Z,99744.11
2018-12-04T05:00:32.092Z,99753.94
2018-12-04T05:01:06.706Z,99752.08
2018-12-04T05:01:41.345Z,99748.71
2018-12-04T05:02:15.945Z,99757.81
2018-12-04T05:02:50.612Z,99753.04
2018-12-04T05:03:25.265Z,99757.29
2018-12-04T05:04:00.734Z,99760.13
2018-12-04T05:04:35.314Z,99761.18
2018-12-04T05:05:09.941Z,99766.41
2018-12-04T05:05:44.550Z,99767.25
2018-12-04T05:06:19.196Z,99758.71
2018-12-04T05:06:53.919Z,99766.91
2018-12-04T05:07:28.589Z,99766.92
2018-12-04T05:08:03.852Z,99771.38
2018-12-04T05:08:38.538Z,99766.86
2018-12-04T05:09:13.141Z,99771.70
2018-12-04T05:09:47.753Z,99770.09
2018-12-04T05:10:22.856Z,99762.56
2018-12-04T05:10:57.554Z,99773.88
2018-12-04T05:11:32.146Z,99772.58
2018-12-04T05:12:06.726Z,99771.89
2018-12-04T05:12:41.315Z,99774.86
2018-12-04T05:13:16.139Z,99774.97
2018-12-04T05:13:50.829Z,99773.31
2018-12-04T05:14:26.062Z,99772.92
2018-12-04T05:15:00.760Z,99773.63
2018-12-04T05:15:35.354Z,99777.16
2018-12-04T05:16:10.000Z,99773.48
2018-12-04T05:16:44.586Z,99777.16
2018-12-04T05:17:19.168Z,99779.32
2018-12-04T05:17:53.883Z,99780.98
2018-12-04T05:18:28.548Z,99781.44
2018-12-04T05:19:03.589Z,99786.30
2018-12-04T05:19:38.139Z,99784.16
2018-12-04T05:20:12.729Z,99791.27
2018-12-04T05:20:47.792Z,99780.14
2018-12-04T05:21:22.445Z,99788.93
2018-12-04T05:21:57.115Z,99792.02
2018-12-04T05:22:31.700Z,99791.38
2018-12-04T05:23:06.326Z,99785.56
2018-12-04T05:23:40.895Z,99792.92
2018-12-04T05:24:15.477Z,99799.66
2018-12-04T05:24:50.114Z,99782.16
2018-12-04T05:25:25.068Z,99789.55
2018-12-04T05:25:59.742Z,99794.82
2018-12-04T05:26:34.342Z,99794.23
2018-12-04T05:27:08.933Z,99795.64
2018-12-04T05:27:43.566Z,99793.77
2018-12-04T05:28:18.196Z,99801.59
2018-12-04T05:28:53.319Z,99799.71
2018-12-04T05:29:28.078Z,99796.94
2018-12-04T05:30:02.929Z,99793.33
2018-12-04T05:30:37.540Z,99807.52
2018-12-04T05:31:12.307Z,99803.89
2018-12-04T05:31:46.957Z,99810.05
2018-12-04T05:32:21.650Z,99804.43
2018-12-04T05:32:56.342Z,99803.64
2018-12-04T05:33:31.058Z,99807.58
2018-12-04T05:34:05.658Z,99804.29
2018-12-04T05:34:40.402Z,99807.83
2018-12-04T05:35:15.035Z,99809.22
2018-12-04T05:35:49.685Z,99812.39
2018-12-04T05:36:24.507Z,99812.55
2018-12-04T05:36:59.141Z,99822.83
2018-12-04T05:37:33.733Z,99825.47
2018-12-04T05:38:08.433Z,99823.91
2018-12-04T05:38:43.322Z,99825.34
2018-12-04T05:39:17.994Z,99834.20
2018-12-04T05:39:52.646Z,99830.73
2018-12-04T05:40:27.522Z,99827.59
2018-12-04T05:41:02.168Z,99826.75
2018-12-04T05:41:36.810Z,99824.26
2018-12-04T05:42:11.430Z,99833.80
2018-12-04T05:42:46.078Z,99838.37
2018-12-04T05:43:20.981Z,99836.78
2018-12-04T05:43:55.681Z,99837.82
2018-12-04T05:44:30.349Z,99833.95
2018-12-04T05:45:06.033Z,99837.47
2018-12-04T05:45:40.700Z,99838.57
2018-12-04T05:46:15.341Z,99837.41
2018-12-04T05:46:50.232Z,99843.38
2018-12-04T05:47:24.989Z,99848.73
2018-12-04T05:47:59.621Z,99841.89
2018-12-04T05:48:34.292Z,99839.76
2018-12-04T05:49:08.898Z,99837.91
2018-12-04T05:49:43.539Z,99840.20
2018-12-04T05:50:18.564Z,99838.91
2018-12-04T05:50:53.456Z,99836.17
2018-12-04T05:51:28.099Z,99838.41
2018-12-04T05:52:02.735Z,99842.84
2018-12-04T05:52:37.414Z,99843.58
2018-12-04T05:53:23.148Z,99841.63
2018-12-04T05:53:57.892Z,99847.40
2018-12-04T05:54:32.959Z,99836.91
2018-12-04T05:55:08.071Z,99847.19
2018-12-04T06:00:48.317Z,99872.42
2018-12-04T06:01:23.114Z,99873.27
2018-12-04T06:01:57.760Z,99876.12
2018-12-04T06:02:32.377Z,99878.20
2018-12-04T06:03:07.448Z,99861.93
2018-12-04T06:03:42.060Z,99874.19
2018-12-04T06:04:16.678Z,99865.97
2018-12-04T06:04:51.471Z,99865.04
2018-12-04T06:05:26.194Z,99868.83
2018-12-04T06:06:00.829Z,99875.20
2018-12-04T06:06:35.439Z,99880.53
2018-12-04T06:07:10.049Z,99879.15
2018-12-04T06:07:44.865Z,99874.94
2018-12-04T06:08:19.642Z,99876.22
2018-12-04T06:08:54.432Z,99881.33
2018-12-04T06:09:29.109Z,99880.80
2018-12-04T06:10:05.281Z,99886.00
2018-12-04T06:10:40.022Z,99889.47
2018-12-04T06:11:14.633Z,99894.00
2018-12-04T06:11:49.381Z,99892.72
2018-12-04T06:12:24.151Z,99884.01
2018-12-04T06:12:58.865Z,99892.45
2018-12-04T06:13:33.642Z,99898.27
2018-12-04T06:14:08.294Z,99898.59
2018-12-04T06:14:42.894Z,99893.52
2018-12-04T06:15:17.495Z,99897.65
2018-12-04T06:15:52.198Z,99900.19
2018-12-04T06:16:26.929Z,99904.15
2018-12-04T06:17:01.992Z,99901.70
2018-12-04T06:17:36.604Z,99913.48
2018-12-04T06:18:11.730Z,99906.91
2018-12-04T06:18:46.673Z,99910.42
2018-12-04T06:19:21.382Z,99910.14
2018-12-04T06:19:56.168Z,99907.96
2018-12-04T06:20:30.797Z,99913.88
2018-12-04T06:21:05.512Z,99911.00
2018-12-04T06:21:40.145Z,99915.80
2018-12-04T06:22:14.767Z,99915.53
2018-12-04T06:22:49.730Z,99915.22
2018-12-04T06:23:25.059Z,99924.16
2018-12-04T06:23:59.765Z,99922.38
2018-12-04T06:24:34.422Z,99921.53
2018-12-04T06:25:09.505Z,99926.38
2018-12-04T06:25:44.605Z,99924.52
2018-12-04T06:26:19.254Z,99928.55
2018-12-04T06:26:53.921Z,99929.09
2018-12-04T06:27:28.590Z,99935.22
2018-12-04T06:28:03.194Z,99938.13
2018-12-04T06:28:37.841Z,99938.44
2018-12-04T06:29:12.453Z,99934.30
2018-12-04T06:29:47.064Z,99937.54
2018-12-04T06:30:22.070Z,99936.06
2018-12-04T06:30:57.066Z,99946.31
2018-12-04T06:31:31.795Z,99944.25
2018-12-04T06:32:06.444Z,99952.88
2018-12-04T06:32:41.615Z,99946.17
2018-12-04T06:33:16.597Z,99947.91
2018-12-04T06:33:51.620Z,99952.93
2018-12-04T06:34:26.309Z,99954.94
2018-12-04T06:35:00.909Z,99946.27
2018-12-04T06:35:35.564Z,99955.87
2018-12-04T06:36:10.406Z,99963.37
2018-12-04T06:36:45.045Z,99959.95
2018-12-04T06:37:19.919Z,99968.14
2018-12-04T06:37:54.697Z,99971.37
2018-12-04T06:38:29.374Z,99973.53
2018-12-04T06:39:06.631Z,99979.13
2018-12-04T06:39:41.268Z,99979.84
2018-12-04T06:40:15.975Z,99983.39
2018-12-04T06:40:51.303Z,99969.29
2018-12-04T06:41:26.211Z,99978.55
2018-12-04T06:42:01.067Z,99984.59
2018-12-04T06:42:35.817Z,99980.50
2018-12-04T06:43:10.592Z,99991.66
2018-12-04T06:43:45.194Z,99983.08
2018-12-04T06:44:19.944Z,99981.78
2018-12-04T06:44:54.689Z,99985.37
2018-12-04T06:45:29.328Z,99994.28
2018-12-04T06:46:04.118Z,99991.97
2018-12-04T06:46:38.763Z,99990.98
2018-12-04T06:47:13.379Z,100000.05
2018-12-04T06:47:48.057Z,99997.55
2018-12-04T06:48:22.934Z,100001.73
2018-12-04T06:48:57.700Z,100003.30
2018-12-04T06:49:32.392Z,99997.77
2018-12-04T06:50:10.260Z,100005.37
2018-12-04T06:50:44.921Z,100002.92
2018-12-04T06:51:19.621Z,100010.95
2018-12-04T06:51:54.414Z,100010.36
2018-12-04T06:52:29.321Z,100008.82
2018-12-04T06:53:04.012Z,100011.73
2018-12-04T06:53:38.921Z,100009.28
2018-12-04T06:54:13.531Z,100016.60
2018-12-04T06:54:48.235Z,100020.70
2018-12-04T06:55:23.341Z,100018.14
2018-12-04T06:55:58.056Z,100022.37
2018-12-04T06:56:32.756Z,100015.37